Time;durP1;ratioP1;P1;durP2;ratioP2;P2;SDS_P1;SDS_P2;PMS_P1;PMS_P2;Temp;Humidity;BMP_temperature;BMP_pressure;BME280_temperature;BME280_humidity;BME280_pressure;Samples;Min_cycle;Max_cycle;Signal;HPM_P1;HPM_P2
2022/07/10 00:00:57;;;;;;;7.32;2.22;;;;;;;24.37;63.07;100239.00;2111338;28;20043;-74
2022/07/10 00:02:19;;;;;;;7.22;2.53;;;;;;;24.38;63.32;100233.53;2105518;28;20509;-74
2022/07/10 00:03:44;;;;;;;6.57;2.20;;;;;;;24.39;63.47;100232.56;2102404;28;20572;-74
2022/07/10 00:05:06;;;;;;;8.10;2.22;;;;;;;24.42;63.38;100236.94;2103341;28;20075;-74
2022/07/10 00:06:29;;;;;;;6.50;1.98;;;;;;;24.42;63.93;100231.53;2105470;28;20036;-74
2022/07/10 00:07:52;;;;;;;7.32;2.30;;;;;;;24.40;64.04;100218.16;2113760;28;20043;-73
2022/07/10 00:09:15;;;;;;;9.15;2.38;;;;;;;24.43;64.32;100231.47;2097260;28;20075;-74
2022/07/10 00:10:38;;;;;;;6.00;2.47;;;;;;;24.43;64.37;100219.78;2092140;28;20049;-73
2022/07/10 00:12:00;;;;;;;6.70;2.40;;;;;;;24.46;64.43;100225.06;2100176;28;20047;-73
2022/07/10 00:13:23;;;;;;;4.45;2.42;;;;;;;24.48;64.54;100226.69;2102879;28;20504;-74
2022/07/10 00:14:44;;;;;;;8.60;2.25;;;;;;;24.51;64.71;100231.97;2105351;28;20072;-75
2022/07/10 00:16:07;;;;;;;6.68;2.35;;;;;;;24.53;64.73;100234.59;2113618;28;20493;-74
2022/07/10 00:17:28;;;;;;;7.35;2.63;;;;;;;24.53;64.55;100224.66;2105117;28;20044;-74
2022/07/10 00:18:51;;;;;;;9.68;3.13;;;;;;;24.54;64.83;100223.72;2102509;28;20040;-74
2022/07/10 00:20:15;;;;;;;4.25;1.95;;;;;;;24.54;64.72;100223.72;2102550;28;20104;-74
2022/07/10 00:21:38;;;;;;;4.70;2.20;;;;;;;24.52;64.69;100230.13;2104093;28;20055;-74
2022/07/10 00:23:00;;;;;;;4.82;2.28;;;;;;;24.50;64.78;100227.50;2110605;28;20062;-74
2022/07/10 00:24:22;;;;;;;12.25;3.35;;;;;;;24.49;65.15;100228.47;2110980;28;20737;-74
2022/07/10 00:25:44;;;;;;;7.95;2.60;;;;;;;24.50;65.31;100221.22;2111073;28;20048;-74
2022/07/10 00:27:08;;;;;;;6.32;2.13;;;;;;;24.49;65.16;100228.47;2110824;28;20051;-73
2022/07/10 00:28:30;;;;;;;7.57;2.20;;;;;;;24.48;65.18;100218.59;2105117;28;20072;-74
2022/07/10 00:29:52;;;;;;;9.20;2.53;;;;;;;24.50;65.50;100223.94;2108646;28;20134;-74
2022/07/10 00:31:14;;;;;;;6.47;2.28;;;;;;;24.51;65.63;100223.00;2110610;28;20043;-74
2022/07/10 00:32:37;;;;;;;8.73;2.83;;;;;;;24.55;65.41;100219.16;2110598;28;20067;-74
2022/07/10 00:33:59;;;;;;;5.78;2.15;;;;;;;24.58;65.44;100219.91;2102781;28;20039;-74
2022/07/10 00:35:22;;;;;;;5.70;2.72;;;;;;;24.60;65.58;100217.13;2108259;28;20040;-74
2022/07/10 00:36:43;;;;;;;5.93;3.03;;;;;;;24.63;65.72;100212.44;2111306;28;20046;-74
2022/07/10 00:38:06;;;;;;;5.95;2.35;;;;;;;24.67;65.48;100210.47;2102641;28;20559;-74
2022/07/10 00:39:27;;;;;;;9.60;2.70;;;;;;;24.69;65.77;100210.38;2108224;28;20072;-74
2022/07/10 00:40:53;;;;;;;6.50;2.42;;;;;;;24.72;65.72;100211.09;2111652;28;20048;-74
2022/07/10 00:42:16;;;;;;;8.07;2.65;;;;;;;24.76;65.80;100212.69;2111355;28;20044;-74
2022/07/10 00:43:54;;;;;;;12.32;2.70;;;;;;;24.80;65.37;100213.41;2113649;28;20051;-74
2022/07/10 00:45:16;;;;;;;10.05;2.55;;;;;;;24.81;65.66;100218.72;2113783;28;20040;-74
2022/07/10 00:46:40;;;;;;;7.50;2.15;;;;;;;24.84;65.50;100212.28;2105396;28;20051;-74
2022/07/10 00:48:03;;;;;;;6.82;2.55;;;;;;;24.87;65.31;100214.84;2108517;28;20507;-74
2022/07/10 00:49:24;;;;;;;10.43;2.70;;;;;;;24.88;65.53;100205.75;2102629;28;20052;-73
2022/07/10 00:50:48;;;;;;;9.57;2.55;;;;;;;24.90;65.61;100206.59;2102625;28;20074;-74
2022/07/10 00:52:13;;;;;;;6.05;2.13;;;;;;;24.89;65.72;100208.41;2108563;28;20088;-74
2022/07/10 00:53:35;;;;;;;6.63;2.85;;;;;;;24.89;65.69;100207.50;2111302;28;20044;-74
2022/07/10 00:54:57;;;;;;;5.85;2.60;;;;;;;24.89;65.89;100203.03;2111137;28;20637;-74
2022/07/10 00:56:21;;;;;;;;;;;;;;;24.88;65.66;100200.34;2102874;28;20042;-73
2022/07/10 00:57:45;;;;;;;7.20;2.38;;;;;;;24.89;65.58;100194.00;2108777;28;19920;-74
2022/07/10 00:59:06;;;;;;;10.38;2.53;;;;;;;24.91;65.50;100197.53;2111342;28;20456;-74
2022/07/10 01:00:30;;;;;;;4.78;2.25;;;;;;;24.94;65.83;100200.09;2110660;28;20050;-74
2022/07/10 01:01:51;;;;;;;5.93;2.30;;;;;;;24.96;65.67;100211.69;2102633;28;20036;-74
2022/07/10 01:03:14;;;;;;;10.23;3.38;;;;;;;24.95;65.58;100201.81;2091532;28;20045;-74
2022/07/10 01:04:36;;;;;;;5.28;2.10;;;;;;;24.96;65.96;100199.03;2105827;28;20039;-74
2022/07/10 01:05:59;;;;;;;5.65;1.90;;;;;;;24.99;65.82;100207.00;2110953;28;20044;-73
2022/07/10 01:07:21;;;;;;;6.80;3.67;;;;;;;25.00;66.04;100205.19;2110688;28;20044;-74
2022/07/10 01:08:43;;;;;;;7.70;2.35;;;;;;;25.01;65.74;100206.91;2110616;28;20504;-74
2022/07/10 01:10:07;;;;;;;4.40;2.33;;;;;;;25.02;66.12;100211.34;2102472;28;20724;-74
2022/07/10 01:11:28;;;;;;;7.40;2.88;;;;;;;24.97;66.31;100202.63;2108482;28;20158;-74
2022/07/10 01:12:53;;;;;;;5.68;2.40;;;;;;;24.91;66.51;100219.16;2102150;28;20040;-73
2022/07/10 01:14:15;;;;;;;10.00;2.92;;;;;;;24.86;67.08;100213.97;2108195;28;20473;-74
2022/07/10 01:15:38;;;;;;;8.10;3.10;;;;;;;24.77;67.11;100218.97;2110844;28;20059;-74
2022/07/10 01:17:01;;;;;;;6.13;2.10;;;;;;;24.63;67.60;100208.88;2110639;28;20083;-74
2022/07/10 01:18:22;;;;;;;4.47;1.73;;;;;;;24.47;67.94;100216.88;2110719;28;20493;-74
2022/07/10 01:19:45;;;;;;;3.40;2.00;;;;;;;24.31;67.99;100215.00;2102545;28;20078;-74
2022/07/10 01:21:23;;;;;;;4.43;1.70;;;;;;;24.16;67.97;100216.59;2107538;28;20146;-74
2022/07/10 01:22:45;;;;;;;6.55;1.92;;;;;;;24.05;68.59;100209.03;2095901;28;20052;-72
2022/07/10 01:24:08;;;;;;;3.72;1.83;;;;;;;23.97;68.39;100208.53;2102401;28;20143;-74
2022/07/10 01:25:31;;;;;;;7.57;2.15;;;;;;;23.92;68.68;100213.28;2102317;28;20059;-74
2022/07/10 01:26:54;;;;;;;4.47;1.88;;;;;;;23.88;68.69;100210.81;2102334;28;20447;-74
2022/07/10 01:28:16;;;;;;;5.22;2.10;;;;;;;23.82;68.68;100218.25;2110503;28;20134;-74
2022/07/10 01:29:39;;;;;;;3.83;1.80;;;;;;;23.79;68.70;100214.81;2104401;28;20044;-74
2022/07/10 01:31:02;;;;;;;3.70;1.63;;;;;;;23.78;68.60;100211.25;2104841;28;20063;-74
2022/07/10 01:32:25;;;;;;;5.47;2.15;;;;;;;23.80;68.56;100213.88;2094270;28;20131;-73
2022/07/10 01:33:47;;;;;;;4.63;1.90;;;;;;;23.79;68.65;100213.00;2100253;28;20043;-74
2022/07/10 01:35:10;;;;;;;7.45;2.85;;;;;;;23.83;68.66;100216.41;2110357;28;20044;-74
2022/07/10 01:36:35;;;;;;;8.27;3.00;;;;;;;23.86;68.91;100220.78;2104862;28;20044;-74
2022/07/10 01:37:57;;;;;;;7.47;3.10;;;;;;;23.88;68.58;100209.00;2110715;28;20851;-74
2022/07/10 01:39:20;;;;;;;7.75;2.50;;;;;;;23.88;68.56;100213.50;2105151;28;20498;-74
2022/07/10 01:40:41;;;;;;;5.25;1.95;;;;;;;23.88;68.74;100219.78;2102115;28;20050;-75
2022/07/10 01:42:04;;;;;;;7.18;2.38;;;;;;;23.88;68.76;100214.41;2101919;28;20059;-74
2022/07/10 01:43:25;;;;;;;9.23;2.45;;;;;;;23.80;69.32;100220.16;2093918;28;20075;-75
2022/07/10 01:44:48;;;;;;;5.38;2.40;;;;;;;23.76;69.69;100232.00;2099436;28;20617;-75
2022/07/10 01:46:10;;;;;;;10.98;2.78;;;;;;;23.75;69.92;100230.28;2102202;28;20059;-75
2022/07/10 01:47:33;;;;;;;10.50;3.28;;;;;;;23.66;70.97;100236.09;2110514;28;20051;-75
2022/07/10 01:48:56;;;;;;;13.02;3.03;;;;;;;23.57;71.45;100238.31;2104585;28;20532;-77
2022/07/10 01:50:18;;;;;;;9.63;2.78;;;;;;;23.35;72.76;100233.03;2102219;28;20070;-77
2022/07/10 01:51:43;;;;;;;7.55;2.05;;;;;;;23.19;73.71;100234.66;2102182;28;20075;-76
2022/07/10 01:53:05;;;;;;;7.55;2.80;;;;;;;23.05;74.36;100252.28;2104580;28;20139;-75
2022/07/10 01:54:27;;;;;;;8.57;2.88;;;;;;;22.98;75.19;100252.63;2110474;28;20043;-74
2022/07/10 01:55:49;;;;;;;7.60;2.40;;;;;;;22.93;75.62;100246.56;2096263;28;20567;-73
2022/07/10 01:57:12;;;;;;;15.02;3.22;;;;;;;22.92;75.96;100251.06;2099392;28;20044;-74
2022/07/10 01:58:34;;;;;;;9.50;3.20;;;;;;;22.89;76.17;100243.16;2110396;28;20047;-74
2022/07/10 01:59:56;;;;;;;;;;;;;;;22.84;76.52;100258.59;2105335;28;20044;-74
2022/07/10 02:01:17;;;;;;;13.48;3.63;;;;;;;22.80;76.58;100253.41;2110371;28;20750;-73
2022/07/10 02:02:40;;;;;;;11.60;3.72;;;;;;;22.80;76.49;100258.81;2096076;28;20123;-73
2022/07/10 02:05:41;;;;;;;9.68;3.78;;;;;;;22.80;76.49;100261.50;2104546;28;20409;-73
2022/07/10 02:07:05;;;;;;;15.60;4.07;;;;;;;22.64;76.65;100261.25;2110202;28;20400;-73
2022/07/10 02:08:28;;;;;;;8.45;3.97;;;;;;;22.55;76.93;100257.13;2104777;28;20079;-73
2022/07/10 02:09:51;;;;;;;6.75;3.22;;;;;;;22.45;77.07;100261.13;2101800;28;20789;-73
2022/07/10 02:11:12;;;;;;;7.85;3.80;;;;;;;22.40;77.19;100273.00;2110369;28;20100;-72
2022/07/10 02:12:34;;;;;;;8.90;3.90;;;;;;;22.38;77.42;100275.78;2104732;28;20040;-73
2022/07/10 02:13:57;;;;;;;7.60;3.70;;;;;;;22.32;77.82;100270.63;2101975;28;20584;-73
2022/07/10 02:15:18;;;;;;;9.52;3.67;;;;;;;22.33;78.02;100284.97;2104640;28;20056;-73
2022/07/10 02:16:41;;;;;;;7.13;3.70;;;;;;;22.38;77.87;100281.16;2101728;28;20074;-73
2022/07/10 02:18:03;;;;;;;8.20;3.70;;;;;;;22.43;77.75;100279.16;2101744;28;20569;-73
2022/07/10 02:19:26;;;;;;;11.60;4.00;;;;;;;22.46;77.88;100270.94;2104548;28;20040;-73
2022/07/10 02:20:48;;;;;;;10.82;3.67;;;;;;;22.45;78.04;100265.66;2110579;28;20043;-73
2022/07/10 02:22:12;;;;;;;10.63;3.30;;;;;;;22.39;78.42;100276.63;2104439;28;20105;-73
2022/07/10 02:23:34;;;;;;;12.88;4.10;;;;;;;22.39;78.62;100271.25;2108676;28;20044;-73
2022/07/10 02:24:57;;;;;;;13.27;3.95;;;;;;;22.43;78.52;100263.03;2110283;28;20089;-73
2022/07/10 02:26:20;;;;;;;7.63;3.13;;;;;;;22.51;78.41;100266.25;2101817;28;20116;-73
2022/07/10 02:27:43;;;;;;;9.98;3.70;;;;;;;22.56;78.12;100248.13;2107460;28;20036;-73
2022/07/10 02:29:06;;;;;;;9.93;3.45;;;;;;;22.59;78.24;100257.84;2110443;28;20055;-74
2022/07/10 02:30:28;;;;;;;19.85;4.75;;;;;;;22.46;78.32;100268.25;2101899;28;20040;-79
2022/07/10 02:31:51;;;;;;;12.10;4.13;;;;;;;22.27;79.09;100268.13;2107784;28;20043;-77
2022/07/10 02:33:12;;;;;;;12.77;4.25;;;;;;;22.16;79.81;100258.75;2110347;28;20040;-77
2022/07/10 02:34:35;;;;;;;14.50;3.83;;;;;;;22.12;80.44;100265.19;2110285;28;20074;-76
2022/07/10 02:35:57;;;;;;;18.00;4.50;;;;;;;22.08;80.76;100256.38;2112986;28;20040;-76
2022/07/10 02:37:21;;;;;;;12.52;4.53;;;;;;;22.04;81.09;100273.56;2110360;28;20047;-75
2022/07/10 02:38:42;;;;;;;12.27;5.10;;;;;;;21.97;81.45;100273.88;2110197;28;20080;-75
2022/07/10 02:40:06;;;;;;;17.05;5.97;;;;;;;21.96;81.59;100274.78;2110322;28;20113;-74
2022/07/10 02:41:28;;;;;;;15.02;5.88;;;;;;;21.91;81.68;100266.88;2114117;28;20050;-74
2022/07/10 02:42:51;;;;;;;14.10;5.50;;;;;;;21.84;81.73;100274.31;2111796;28;20378;-74
2022/07/10 02:44:13;;;;;;;14.95;6.95;;;;;;;21.77;81.95;100270.09;2112183;28;20055;-74
2022/07/10 02:45:35;;;;;;;13.07;5.97;;;;;;;21.76;82.06;100264.78;2111900;28;20048;-74
2022/07/10 02:46:58;;;;;;;16.50;7.30;;;;;;;21.76;82.04;100267.47;2111395;28;20639;-74
2022/07/10 02:48:20;;;;;;;12.73;5.78;;;;;;;21.76;82.06;100268.34;2111993;28;20055;-74
2022/07/10 02:49:41;;;;;;;13.57;7.18;;;;;;;21.71;82.28;100267.66;2112044;28;20568;-74
2022/07/10 02:51:04;;;;;;;13.50;6.65;;;;;;;21.72;82.06;100269.41;2103403;28;20453;-74
2022/07/10 02:52:30;;;;;;;14.70;7.53;;;;;;;21.72;82.11;100271.22;2108910;28;20082;-74
2022/07/10 02:53:52;;;;;;;14.88;6.70;;;;;;;21.75;81.89;100269.28;2112519;28;20043;-74
2022/07/10 02:55:15;;;;;;;17.00;7.53;;;;;;;21.74;81.61;100274.69;2105997;28;20079;-73
2022/07/10 02:56:39;;;;;;;16.50;6.55;;;;;;;21.72;81.43;100271.22;2109447;28;20055;-73
2022/07/10 02:58:03;;;;;;;12.70;7.05;;;;;;;21.72;81.51;100265.84;2103679;28;20036;-73
2022/07/10 02:59:24;;;;;;;14.60;7.63;;;;;;;21.76;81.57;100264.78;2101288;28;20457;-73
2022/07/10 03:00:47;;;;;;;21.33;7.35;;;;;;;21.79;81.41;100262.84;2103444;28;20166;-73
2022/07/10 03:02:10;;;;;;;16.73;7.82;;;;;;;21.84;81.01;100265.38;2100890;28;20048;-74
2022/07/10 03:03:32;;;;;;;14.07;7.05;;;;;;;21.84;80.78;100255.50;2109241;28;20088;-73
2022/07/10 03:04:53;;;;;;;17.80;7.05;;;;;;;21.81;80.91;100262.78;2112033;28;20047;-73
2022/07/10 03:06:16;;;;;;;17.75;7.10;;;;;;;21.79;81.09;100259.31;2111378;28;20047;-73
2022/07/10 03:07:39;;;;;;;15.85;7.63;;;;;;;21.84;81.24;100252.81;2111842;28;20056;-72
2022/07/10 03:09:02;;;;;;;17.00;7.13;;;;;;;21.91;81.16;100255.25;2103553;28;20487;-73
2022/07/10 03:10:23;;;;;;;17.10;7.25;;;;;;;21.93;81.03;100256.94;2112005;28;20047;-73
2022/07/10 03:11:46;;;;;;;16.35;7.80;;;;;;;21.93;81.04;100256.94;2111710;28;20083;-73
2022/07/10 03:13:07;;;;;;;13.82;6.63;;;;;;;21.93;81.18;100256.94;2111247;28;20050;-72
2022/07/10 03:14:30;;;;;;;12.80;6.47;;;;;;;21.91;81.29;100258.81;2111613;28;20100;-73
2022/07/10 03:15:55;;;;;;;17.70;7.03;;;;;;;21.93;81.22;100256.94;2111855;28;20047;-73
2022/07/10 03:17:17;;;;;;;14.10;6.38;;;;;;;21.92;81.35;100255.19;2104049;28;20065;-73
2022/07/10 03:18:39;;;;;;;;;;;;;;;21.92;81.16;100249.81;2109459;28;20496;-73
2022/07/10 03:20:01;;;;;;;16.17;6.05;;;;;;;21.89;81.41;100260.69;2102856;28;20027;-73
2022/07/10 03:21:23;;;;;;;13.00;6.15;;;;;;;21.87;81.40;100255.34;2100608;28;20040;-73
2022/07/10 03:22:47;;;;;;;14.98;5.38;;;;;;;21.85;81.55;100257.25;2092242;28;20072;-72
2022/07/10 03:24:10;;;;;;;15.10;5.60;;;;;;;21.81;81.99;100254.72;2097488;28;20060;-72
2022/07/10 03:25:33;;;;;;;18.38;5.78;;;;;;;21.79;82.25;100256.63;2086576;28;20132;-73
2022/07/10 03:26:55;;;;;;;14.23;6.47;;;;;;;21.80;82.30;100261.03;2100080;28;20580;-72
2022/07/10 03:28:18;;;;;;;18.50;5.95;;;;;;;21.79;82.63;100259.31;2097431;28;20444;-73
2022/07/10 03:29:40;;;;;;;14.55;6.10;;;;;;;21.81;82.39;100276.22;2094958;28;20044;-72
2022/07/10 03:31:03;;;;;;;16.90;5.60;;;;;;;21.84;82.54;100268.94;2094845;28;20031;-72
2022/07/10 03:32:25;;;;;;;15.98;6.65;;;;;;;21.88;82.57;100273.25;2095061;28;20060;-72
2022/07/10 03:33:47;;;;;;;19.95;6.03;;;;;;;21.92;82.24;100271.34;2094849;28;20098;-73
2022/07/10 03:35:08;;;;;;;14.65;5.65;;;;;;;21.95;82.33;100276.56;2097365;28;20145;-72
2022/07/10 03:36:31;;;;;;;15.07;6.28;;;;;;;22.01;82.45;100276.38;2097724;28;20064;-72
2022/07/10 03:37:54;;;;;;;16.10;5.65;;;;;;;22.06;82.30;100279.72;2094914;28;20055;-73
2022/07/10 03:39:16;;;;;;;19.58;6.00;;;;;;;22.02;82.20;100283.50;2094551;28;20053;-73
2022/07/10 03:40:38;;;;;;;12.27;5.75;;;;;;;22.01;82.33;100275.47;2094958;28;20048;-73
2022/07/10 03:42:00;;;;;;;10.57;5.53;;;;;;;22.03;82.32;100281.69;2094902;28;20079;-72
2022/07/10 03:43:24;;;;;;;13.23;5.82;;;;;;;22.06;82.25;100276.16;2094605;28;20401;-72
2022/07/10 03:44:45;;;;;;;11.60;5.60;;;;;;;22.12;82.04;100279.50;2095273;28;20043;-72
2022/07/10 03:46:08;;;;;;;12.82;5.70;;;;;;;22.16;81.88;100283.84;2095060;28;20422;-72
2022/07/10 03:47:31;;;;;;;18.85;6.22;;;;;;;22.10;81.82;100281.38;2094705;28;20051;-73
2022/07/10 03:48:52;;;;;;;14.82;5.60;;;;;;;22.11;82.26;100280.47;2097509;28;20044;-73
2022/07/10 03:50:15;;;;;;;13.95;6.00;;;;;;;22.19;82.23;100282.81;2094793;28;20044;-73
2022/07/10 03:51:37;;;;;;;11.40;5.68;;;;;;;22.27;82.08;100280.69;2094796;28;20056;-73
2022/07/10 03:53:01;;;;;;;13.90;5.60;;;;;;;22.34;81.96;100289.41;2094015;28;20044;-72
2022/07/10 03:54:23;;;;;;;10.95;4.85;;;;;;;22.38;81.89;100259.66;2094863;28;20622;-72
2022/07/10 03:55:46;;;;;;;11.20;5.05;;;;;;;22.31;82.16;100282.34;2094408;28;20083;-73
2022/07/10 03:58:47;;;;;;;16.25;5.50;;;;;;;22.37;82.74;100283.91;2097004;28;20045;-73
2022/07/10 04:00:11;;;;;;;15.80;5.95;;;;;;;22.38;82.91;100283.84;2094546;28;20126;-72
2022/07/10 04:01:35;;;;;;;13.40;5.13;;;;;;;22.35;82.97;100281.28;2095249;28;20048;-72
2022/07/10 04:02:58;;;;;;;13.73;5.10;;;;;;;22.39;83.08;100292.78;2094647;28;20402;-72
2022/07/10 04:04:19;;;;;;;12.60;5.43;;;;;;;22.46;82.90;100295.16;2094753;28;20538;-73
2022/07/10 04:05:41;;;;;;;15.70;6.65;;;;;;;22.64;83.06;100280.09;2094569;28;20077;-72
2022/07/10 04:07:04;;;;;;;13.65;5.30;;;;;;;22.83;83.20;100282.91;2094604;28;20443;-72
2022/07/10 04:08:28;;;;;;;13.38;5.47;;;;;;;22.90;83.03;100276.34;2086107;28;20056;-72
2022/07/10 04:09:50;;;;;;;15.65;5.20;;;;;;;22.97;83.26;100272.44;2100410;28;20047;-72
2022/07/10 04:11:11;;;;;;;23.05;5.60;;;;;;;23.01;83.13;100285.69;2097334;28;20087;-72
2022/07/10 04:12:34;;;;;;;8.68;4.28;;;;;;;23.14;83.33;100277.94;2094407;28;20052;-72
2022/07/10 04:13:56;;;;;;;15.40;5.50;;;;;;;23.33;83.45;100278.00;2094762;28;20119;-72
2022/07/10 04:15:19;;;;;;;13.75;4.45;;;;;;;23.47;82.81;100283.69;2094608;28;20143;-72
2022/07/10 04:16:40;;;;;;;11.60;5.10;;;;;;;23.60;82.53;100289.41;2094395;28;20525;-72
2022/07/10 04:18:02;;;;;;;11.52;4.47;;;;;;;23.69;82.03;100280.91;2086160;28;20147;-72
2022/07/10 04:19:24;;;;;;;11.75;3.92;;;;;;;23.79;81.82;100291.19;2091937;28;20442;-73
2022/07/10 04:20:46;;;;;;;12.65;4.57;;;;;;;23.90;81.46;100284.41;2095889;28;20102;-72
2022/07/10 04:22:08;;;;;;;10.45;4.40;;;;;;;24.05;81.02;100278.28;2102824;28;20048;-73
2022/07/10 04:23:33;;;;;;;13.27;4.97;;;;;;;24.25;80.53;100280.06;2111166;28;20064;-72
2022/07/10 04:24:54;;;;;;;11.73;4.38;;;;;;;24.38;79.96;100279.41;2111416;28;20450;-73
2022/07/10 04:26:17;;;;;;;9.48;3.13;;;;;;;24.55;79.40;100290.22;2111215;28;20159;-73
2022/07/10 04:27:39;;;;;;;9.18;3.83;;;;;;;24.66;79.22;100276.22;2110838;28;20093;-72
2022/07/10 04:29:01;;;;;;;9.43;3.40;;;;;;;24.61;78.91;100273.72;2099838;28;20158;-73
2022/07/10 04:30:23;;;;;;;13.23;4.10;;;;;;;24.55;78.65;100278.56;2092938;28;20048;-72
2022/07/10 04:31:46;;;;;;;12.10;4.43;;;;;;;24.66;78.21;100270.81;2094215;28;20052;-73
2022/07/10 04:33:08;;;;;;;10.65;3.78;;;;;;;24.69;77.61;100265.25;2094400;28;20063;-73
2022/07/10 04:34:31;;;;;;;13.70;4.28;;;;;;;24.54;77.30;100283.09;2094425;28;20708;-73
2022/07/10 04:35:53;;;;;;;11.77;4.00;;;;;;;24.48;77.16;100285.22;2093987;28;20087;-74
2022/07/10 04:37:16;;;;;;;14.45;4.10;;;;;;;24.68;76.92;100278.84;2093952;28;20160;-73
2022/07/10 04:38:38;;;;;;;10.77;3.35;;;;;;;24.92;75.57;100285.72;2094510;28;20048;-73
2022/07/10 04:40:01;;;;;;;11.57;5.80;;;;;;;25.06;74.89;100288.59;2094242;28;20514;-72
2022/07/10 04:41:22;;;;;;;11.52;4.38;;;;;;;25.27;74.06;100290.16;2102986;28;20079;-73
2022/07/10 04:42:45;;;;;;;12.50;4.22;;;;;;;25.45;73.28;100293.75;2088760;28;20659;-73
2022/07/10 04:44:07;;;;;;;9.95;3.60;;;;;;;25.73;72.19;100293.16;2091426;28;20048;-73
2022/07/10 04:45:28;;;;;;;12.50;3.53;;;;;;;26.05;71.29;100283.28;2094304;28;20048;-72
2022/07/10 04:46:51;;;;;;;;;;;;;;;26.28;70.17;100290.13;2094352;28;20055;-73
2022/07/10 04:48:12;;;;;;;10.52;3.00;;;;;;;26.22;69.82;100291.31;2094122;28;19995;-74
2022/07/10 04:49:36;;;;;;;9.50;3.30;;;;;;;25.88;70.47;100283.31;2086163;28;20056;-74
2022/07/10 04:50:58;;;;;;;9.75;3.40;;;;;;;25.84;70.99;100293.44;2094370;28;20075;-73
2022/07/10 04:52:21;;;;;;;9.48;3.83;;;;;;;26.18;70.11;100287.03;2094286;28;20045;-73
2022/07/10 04:53:44;;;;;;;9.65;3.67;;;;;;;26.49;68.93;100288.88;2094329;28;20079;-74
2022/07/10 04:55:08;;;;;;;10.25;3.40;;;;;;;26.92;67.72;100281.84;2095009;28;20060;-73
2022/07/10 04:56:31;;;;;;;9.23;3.28;;;;;;;27.20;66.54;100286.50;2102468;28;20048;-73
2022/07/10 04:57:53;;;;;;;10.85;3.30;;;;;;;27.44;65.85;100284.97;2102700;28;20048;-73
2022/07/10 04:59:16;;;;;;;5.32;2.72;;;;;;;27.29;65.92;100291.38;2102704;28;20134;-73
2022/07/10 05:00:37;;;;;;;7.38;2.95;;;;;;;27.03;66.38;100286.66;2102374;28;20450;-73
2022/07/10 05:01:59;;;;;;;9.40;3.42;;;;;;;26.72;67.00;100287.53;2102775;28;20081;-73
2022/07/10 05:03:21;;;;;;;11.48;3.67;;;;;;;26.26;67.26;100284.78;2102470;28;20548;-73
2022/07/10 05:04:44;;;;;;;14.93;3.58;;;;;;;25.82;68.14;100283.66;2104284;28;20047;-73
2022/07/10 05:06:05;;;;;;;14.05;4.35;;;;;;;25.46;68.66;100281.09;2102606;28;20127;-73
2022/07/10 05:07:28;;;;;;;8.20;3.15;;;;;;;25.18;69.25;100279.84;2102184;28;20044;-73
2022/07/10 05:08:50;;;;;;;8.95;3.25;;;;;;;24.98;69.81;100289.00;2102211;28;20052;-73
2022/07/10 05:10:13;;;;;;;13.40;3.22;;;;;;;24.85;70.28;100286.97;2094178;28;20053;-73
2022/07/10 05:11:36;;;;;;;9.32;3.35;;;;;;;24.76;70.21;100292.81;2099964;28;20521;-73
2022/07/10 05:12:59;;;;;;;10.10;3.22;;;;;;;24.69;70.44;100278.75;2101880;28;20042;-73
2022/07/10 05:14:21;;;;;;;9.73;3.95;;;;;;;24.63;70.36;100279.94;2101624;28;20134;-73
2022/07/10 05:15:46;;;;;;;12.57;4.07;;;;;;;24.53;70.48;100289.44;2101489;28;20047;-73
2022/07/10 05:17:09;;;;;;;9.20;3.88;;;;;;;24.46;70.50;100284.44;2093697;28;20383;-73
2022/07/10 05:18:31;;;;;;;8.65;3.35;;;;;;;24.40;70.49;100290.13;2099284;28;20102;-73
2022/07/10 05:19:55;;;;;;;9.63;3.67;;;;;;;24.28;70.78;100288.91;2092945;28;20093;-72
2022/07/10 05:21:18;;;;;;;11.63;4.20;;;;;;;24.20;71.23;100293.78;2099704;28;20044;-73
2022/07/10 05:22:40;;;;;;;8.90;3.75;;;;;;;24.11;71.07;100302.28;2093764;28;20496;-73
2022/07/10 05:24:04;;;;;;;8.95;3.90;;;;;;;24.02;71.66;100302.72;2096341;28;20045;-73
2022/07/10 05:25:30;;;;;;;8.10;3.90;;;;;;;24.04;71.63;100303.50;2093866;28;20059;-73
2022/07/10 05:26:52;;;;;;;12.00;3.67;;;;;;;24.18;71.67;100295.66;2093904;28;20451;-73
2022/07/10 05:28:15;;;;;;;12.40;3.53;;;;;;;24.49;71.29;100295.94;2093510;28;20494;-73
2022/07/10 05:29:37;;;;;;;12.05;3.58;;;;;;;25.15;70.24;100287.22;2093923;28;20571;-74
2022/07/10 05:31:00;;;;;;;11.07;3.85;;;;;;;26.14;68.25;100299.84;2093943;28;20143;-72
2022/07/10 05:32:22;;;;;;;11.65;3.50;;;;;;;26.96;65.93;100303.28;2093730;28;20699;-73
2022/07/10 05:33:45;;;;;;;9.52;3.65;;;;;;;27.21;65.02;100307.22;2093567;28;20060;-73
2022/07/10 05:35:09;;;;;;;15.27;4.20;;;;;;;27.51;63.87;100305.34;2102076;28;20130;-73
2022/07/10 05:36:31;;;;;;;15.75;4.15;;;;;;;27.55;63.46;100306.94;2096120;28;20438;-72
2022/07/10 05:37:53;;;;;;;14.60;4.18;;;;;;;27.23;63.85;100308.00;2093593;28;20653;-73
2022/07/10 05:39:16;;;;;;;13.75;3.90;;;;;;;26.79;64.63;100297.06;2093842;28;20469;-72
2022/07/10 05:40:39;;;;;;;15.68;5.63;;;;;;;26.42;65.38;100309.16;2101657;28;20119;-73
2022/07/10 05:42:01;;;;;;;11.00;4.32;;;;;;;26.12;66.06;100306.31;2096232;28;20056;-72
2022/07/10 05:43:23;;;;;;;8.55;4.00;;;;;;;25.95;66.55;100304.53;2095317;28;20031;-73
2022/07/10 05:44:45;;;;;;;9.63;3.90;;;;;;;25.81;66.54;100301.72;2104074;28;20048;-72
2022/07/10 05:46:06;;;;;;;11.75;4.00;;;;;;;25.67;66.67;100301.59;2095771;28;20056;-73
2022/07/10 05:47:29;;;;;;;11.45;4.28;;;;;;;25.47;66.86;100296.38;2093084;28;20048;-72
2022/07/10 05:48:51;;;;;;;11.85;4.45;;;;;;;25.30;67.28;100297.25;2095831;28;20525;-73
2022/07/10 05:50:13;;;;;;;9.73;4.18;;;;;;;25.16;67.39;100302.50;2104523;28;20075;-72
2022/07/10 05:51:36;;;;;;;13.48;3.63;;;;;;;25.00;67.99;100306.00;2104584;28;20443;-72
2022/07/10 05:52:58;;;;;;;11.70;3.55;;;;;;;24.84;68.11;100298.69;2093350;28;20066;-73
2022/07/10 05:54:22;;;;;;;11.13;3.90;;;;;;;24.35;69.90;100309.22;2107081;28;20075;-72
2022/07/10 05:55:44;;;;;;;11.63;3.97;;;;;;;23.89;71.94;100306.94;2095859;28;20584;-72
2022/07/10 05:57:06;;;;;;;10.73;4.45;;;;;;;23.62;72.69;100323.44;2093738;28;20082;-72
2022/07/10 05:58:29;;;;;;;11.60;4.28;;;;;;;23.51;73.54;100316.75;2085105;28;20056;-72
2022/07/10 05:59:50;;;;;;;11.90;4.47;;;;;;;23.45;73.81;100317.88;2093632;28;20047;-72
2022/07/10 06:01:13;;;;;;;9.55;4.65;;;;;;;23.47;74.04;100334.91;2093723;28;20433;-72
2022/07/10 06:02:35;;;;;;;14.13;4.53;;;;;;;23.47;73.91;100334.91;2093579;28;20770;-72
2022/07/10 06:03:57;;;;;;;17.33;6.47;;;;;;;23.53;73.80;100334.63;2093583;28;20055;-72
2022/07/10 06:05:19;;;;;;;14.77;4.55;;;;;;;23.62;73.65;100339.59;2093576;28;20056;-72
2022/07/10 06:06:41;;;;;;;13.20;5.78;;;;;;;23.67;73.83;100328.63;2085557;28;20041;-72
2022/07/10 06:08:04;;;;;;;15.65;5.15;;;;;;;23.68;73.62;100327.66;2082165;28;20094;-72
2022/07/10 06:09:28;;;;;;;16.60;7.18;;;;;;;23.73;73.56;100337.28;2090668;28;20144;-72
2022/07/10 06:10:50;;;;;;;12.77;6.03;;;;;;;23.85;73.22;100333.16;2093954;28;20486;-72
2022/07/10 06:12:12;;;;;;;14.75;6.22;;;;;;;23.96;72.90;100335.38;2093341;28;20052;-72
2022/07/10 06:13:34;;;;;;;12.13;5.93;;;;;;;24.09;72.68;100332.00;2093395;28;20041;-72
2022/07/10 06:14:56;;;;;;;19.10;6.38;;;;;;;24.25;72.42;100334.91;2093771;28;20072;-72
2022/07/10 06:16:19;;;;;;;19.13;7.40;;;;;;;24.32;72.45;100325.56;2092942;28;20056;-71
2022/07/10 06:17:40;;;;;;;14.63;6.68;;;;;;;24.30;72.26;100322.06;2093351;28;20087;-72
2022/07/10 06:19:03;;;;;;;19.63;7.05;;;;;;;24.30;72.40;100322.06;2093155;28;20041;-72
2022/07/10 06:20:26;;;;;;;18.20;6.25;;;;;;;24.38;72.27;100322.56;2093358;28;20489;-72
2022/07/10 06:21:47;;;;;;;11.43;5.80;;;;;;;24.49;72.27;100328.31;2101793;28;20109;-72
2022/07/10 06:23:10;;;;;;;15.85;6.05;;;;;;;24.63;72.02;100328.53;2104506;28;20109;-72
2022/07/10 06:24:32;;;;;;;15.52;5.72;;;;;;;25.23;71.43;100322.84;2110182;28;20154;-72
2022/07/10 06:25:55;;;;;;;14.13;6.20;;;;;;;25.79;69.94;100325.28;2101964;28;20138;-72